sensor_id;sensor_type;location;lat;lon;timestamp;temperature;humidity
12413;DHT22;13877;18.896;-99.222;2023-04-24T00:01:28;33.10;25.20
12413;DHT22;13877;18.896;-99.222;2023-04-24T00:03:57;32.90;25.20
12413;DHT22;13877;18.896;-99.222;2023-04-24T00:06:26;33.00;25.10
12413;DHT22;13877;18.896;-99.222;2023-04-24T00:09:00;33.30;25.40
12413;DHT22;13877;18.896;-99.222;2023-04-24T00:11:27;33.20;26.10
12413;DHT22;13877;18.896;-99.222;2023-04-24T00:13:54;33.20;23.80
12413;DHT22;13877;18.896;-99.222;2023-04-24T00:16:21;33.00;25.10
12413;DHT22;13877;18.896;-99.222;2023-04-24T00:18:48;33.10;25.20
12413;DHT22;13877;18.896;-99.222;2023-04-24T00:21:15;32.90;26.00
12413;DHT22;13877;18.896;-99.222;2023-04-24T00:23:44;32.90;25.50
12413;DHT22;13877;18.896;-99.222;2023-04-24T00:26:11;32.70;27.30
12413;DHT22;13877;18.896;-99.222;2023-04-24T00:28:38;32.20;28.80
12413;DHT22;13877;18.896;-99.222;2023-04-24T00:31:05;31.20;25.00
12413;DHT22;13877;18.896;-99.222;2023-04-24T00:33:32;30.40;28.70
12413;DHT22;13877;18.896;-99.222;2023-04-24T00:35:59;29.70;27.30
12413;DHT22;13877;18.896;-99.222;2023-04-24T00:38:26;29.20;27.80
12413;DHT22;13877;18.896;-99.222;2023-04-24T00:40:53;28.90;28.90
12413;DHT22;13877;18.896;-99.222;2023-04-24T00:43:20;28.60;29.10
12413;DHT22;13877;18.896;-99.222;2023-04-24T00:45:47;28.40;29.10
12413;DHT22;13877;18.896;-99.222;2023-04-24T00:48:14;28.30;29.20
12413;DHT22;13877;18.896;-99.222;2023-04-24T00:50:42;28.10;29.10
12413;DHT22;13877;18.896;-99.222;2023-04-24T00:53:09;28.00;29.40
12413;DHT22;13877;18.896;-99.222;2023-04-24T00:55:36;27.90;29.60
12413;DHT22;13877;18.896;-99.222;2023-04-24T00:58:04;27.70;29.40
12413;DHT22;13877;18.896;-99.222;2023-04-24T01:00:31;27.70;29.40
12413;DHT22;13877;18.896;-99.222;2023-04-24T01:02:59;27.70;29.80
12413;DHT22;13877;18.896;-99.222;2023-04-24T01:05:28;27.50;30.50
12413;DHT22;13877;18.896;-99.222;2023-04-24T01:07:57;27.30;30.90
12413;DHT22;13877;18.896;-99.222;2023-04-24T01:10:25;27.20;31.20
12413;DHT22;13877;18.896;-99.222;2023-04-24T01:12:54;27.20;30.70
12413;DHT22;13877;18.896;-99.222;2023-04-24T01:15:21;27.10;30.80
12413;DHT22;13877;18.896;-99.222;2023-04-24T01:17:49;27.10;31.50
12413;DHT22;13877;18.896;-99.222;2023-04-24T01:20:17;27.10;31.60
12413;DHT22;13877;18.896;-99.222;2023-04-24T01:22:47;27.20;32.20
12413;DHT22;13877;18.896;-99.222;2023-04-24T01:25:15;27.30;33.10
12413;DHT22;13877;18.896;-99.222;2023-04-24T01:27:42;27.20;33.90
12413;DHT22;13877;18.896;-99.222;2023-04-24T01:30:11;27.10;34.20
12413;DHT22;13877;18.896;-99.222;2023-04-24T01:32:41;26.90;35.00
12413;DHT22;13877;18.896;-99.222;2023-04-24T01:35:12;26.80;35.20
12413;DHT22;13877;18.896;-99.222;2023-04-24T01:37:39;26.60;35.80
12413;DHT22;13877;18.896;-99.222;2023-04-24T01:40:07;26.40;36.90
12413;DHT22;13877;18.896;-99.222;2023-04-24T01:42:35;26.20;36.90
12413;DHT22;13877;18.896;-99.222;2023-04-24T01:45:03;26.10;38.10
12413;DHT22;13877;18.896;-99.222;2023-04-24T01:47:31;26.40;36.40
12413;DHT22;13877;18.896;-99.222;2023-04-24T01:49:58;26.40;36.30
12413;DHT22;13877;18.896;-99.222;2023-04-24T01:52:25;26.10;36.50
12413;DHT22;13877;18.896;-99.222;2023-04-24T01:54:53;25.90;36.90
12413;DHT22;13877;18.896;-99.222;2023-04-24T01:57:22;25.80;36.70
12413;DHT22;13877;18.896;-99.222;2023-04-24T01:59:50;25.80;37.10
12413;DHT22;13877;18.896;-99.222;2023-04-24T02:02:17;25.90;37.80
12413;DHT22;13877;18.896;-99.222;2023-04-24T02:04:44;26.00;37.00
12413;DHT22;13877;18.896;-99.222;2023-04-24T02:07:11;26.10;37.90
12413;DHT22;13877;18.896;-99.222;2023-04-24T02:09:39;26.20;36.90
12413;DHT22;13877;18.896;-99.222;2023-04-24T02:12:06;26.20;36.60
12413;DHT22;13877;18.896;-99.222;2023-04-24T02:14:33;26.30;36.60
12413;DHT22;13877;18.896;-99.222;2023-04-24T02:17:00;26.30;37.10
12413;DHT22;13877;18.896;-99.222;2023-04-24T02:19:28;26.20;36.60
12413;DHT22;13877;18.896;-99.222;2023-04-24T02:21:55;26.00;36.60
12413;DHT22;13877;18.896;-99.222;2023-04-24T02:24:22;25.90;36.90
12413;DHT22;13877;18.896;-99.222;2023-04-24T02:26:49;25.70;38.00
12413;DHT22;13877;18.896;-99.222;2023-04-24T02:29:16;25.60;38.00
12413;DHT22;13877;18.896;-99.222;2023-04-24T02:31:43;25.80;37.60
12413;DHT22;13877;18.896;-99.222;2023-04-24T02:34:10;26.00;37.90
12413;DHT22;13877;18.896;-99.222;2023-04-24T02:36:37;25.80;38.00
12413;DHT22;13877;18.896;-99.222;2023-04-24T02:39:04;25.70;38.50
12413;DHT22;13877;18.896;-99.222;2023-04-24T02:41:32;25.40;38.70
12413;DHT22;13877;18.896;-99.222;2023-04-24T02:43:59;25.10;39.50
12413;DHT22;13877;18.896;-99.222;2023-04-24T02:46:26;24.90;39.40
12413;DHT22;13877;18.896;-99.222;2023-04-24T02:48:53;24.80;39.70
12413;DHT22;13877;18.896;-99.222;2023-04-24T02:51:20;24.70;39.40
12413;DHT22;13877;18.896;-99.222;2023-04-24T02:53:47;24.60;40.00
12413;DHT22;13877;18.896;-99.222;2023-04-24T02:56:14;24.40;39.40
12413;DHT22;13877;18.896;-99.222;2023-04-24T02:58:41;24.50;39.10
12413;DHT22;13877;18.896;-99.222;2023-04-24T03:01:08;24.50;38.00
12413;DHT22;13877;18.896;-99.222;2023-04-24T03:03:39;24.60;38.20
12413;DHT22;13877;18.896;-99.222;2023-04-24T03:06:06;24.70;37.80
12413;DHT22;13877;18.896;-99.222;2023-04-24T03:08:35;24.80;37.50
12413;DHT22;13877;18.896;-99.222;2023-04-24T03:11:02;24.80;38.10
12413;DHT22;13877;18.896;-99.222;2023-04-24T03:13:28;24.70;38.40
12413;DHT22;13877;18.896;-99.222;2023-04-24T03:15:55;24.80;37.40
12413;DHT22;13877;18.896;-99.222;2023-04-24T03:18:22;24.60;37.50
12413;DHT22;13877;18.896;-99.222;2023-04-24T03:20:51;24.60;36.30
12413;DHT22;13877;18.896;-99.222;2023-04-24T03:23:18;24.60;36.10
12413;DHT22;13877;18.896;-99.222;2023-04-24T03:25:46;24.70;35.60
12413;DHT22;13877;18.896;-99.222;2023-04-24T03:28:16;24.70;36.20
12413;DHT22;13877;18.896;-99.222;2023-04-24T03:30:47;24.70;35.60
12413;DHT22;13877;18.896;-99.222;2023-04-24T03:33:16;24.60;35.80
12413;DHT22;13877;18.896;-99.222;2023-04-24T03:35:53;24.40;35.70
12413;DHT22;13877;18.896;-99.222;2023-04-24T03:38:21;24.40;35.50
12413;DHT22;13877;18.896;-99.222;2023-04-24T03:40:54;24.60;35.70
12413;DHT22;13877;18.896;-99.222;2023-04-24T03:43:44;24.50;35.60
12413;DHT22;13877;18.896;-99.222;2023-04-24T03:46:11;24.40;35.50
12413;DHT22;13877;18.896;-99.222;2023-04-24T03:48:43;24.40;35.20
12413;DHT22;13877;18.896;-99.222;2023-04-24T03:51:11;24.40;35.70
12413;DHT22;13877;18.896;-99.222;2023-04-24T03:53:41;24.30;36.00
12413;DHT22;13877;18.896;-99.222;2023-04-24T03:56:09;24.20;35.80
12413;DHT22;13877;18.896;-99.222;2023-04-24T03:58:36;24.30;36.30
12413;DHT22;13877;18.896;-99.222;2023-04-24T04:01:04;24.10;37.00
12413;DHT22;13877;18.896;-99.222;2023-04-24T04:03:58;24.00;37.70
12413;DHT22;13877;18.896;-99.222;2023-04-24T04:06:27;23.80;38.30
12413;DHT22;13877;18.896;-99.222;2023-04-24T04:08:58;23.80;38.30
12413;DHT22;13877;18.896;-99.222;2023-04-24T04:11:25;23.80;36.80
12413;DHT22;13877;18.896;-99.222;2023-04-24T04:13:52;23.90;36.60
12413;DHT22;13877;18.896;-99.222;2023-04-24T04:16:21;23.90;36.80
12413;DHT22;13877;18.896;-99.222;2023-04-24T04:18:51;23.90;36.80
12413;DHT22;13877;18.896;-99.222;2023-04-24T04:21:18;23.80;37.40
12413;DHT22;13877;18.896;-99.222;2023-04-24T04:23:47;23.80;37.60
12413;DHT22;13877;18.896;-99.222;2023-04-24T04:26:26;23.60;37.50
12413;DHT22;13877;18.896;-99.222;2023-04-24T04:29:02;23.50;37.90
12413;DHT22;13877;18.896;-99.222;2023-04-24T04:31:31;23.50;37.70
12413;DHT22;13877;18.896;-99.222;2023-04-24T04:34:01;23.50;37.90
12413;DHT22;13877;18.896;-99.222;2023-04-24T04:36:31;23.60;37.20
12413;DHT22;13877;18.896;-99.222;2023-04-24T04:39:07;23.50;36.40
12413;DHT22;13877;18.896;-99.222;2023-04-24T04:41:55;23.50;36.90
12413;DHT22;13877;18.896;-99.222;2023-04-24T04:44:26;23.30;37.10
12413;DHT22;13877;18.896;-99.222;2023-04-24T04:46:54;23.30;37.10
12413;DHT22;13877;18.896;-99.222;2023-04-24T04:49:28;23.30;36.80
12413;DHT22;13877;18.896;-99.222;2023-04-24T04:51:55;23.50;36.20
12413;DHT22;13877;18.896;-99.222;2023-04-24T04:54:25;23.60;35.70
12413;DHT22;13877;18.896;-99.222;2023-04-24T04:56:52;23.50;36.00
12413;DHT22;13877;18.896;-99.222;2023-04-24T04:59:19;23.60;35.00
12413;DHT22;13877;18.896;-99.222;2023-04-24T05:01:49;23.60;35.20
12413;DHT22;13877;18.896;-99.222;2023-04-24T05:04:18;23.50;35.50
12413;DHT22;13877;18.896;-99.222;2023-04-24T05:06:45;23.50;35.20
12413;DHT22;13877;18.896;-99.222;2023-04-24T05:09:14;23.50;35.00
12413;DHT22;13877;18.896;-99.222;2023-04-24T05:11:49;23.40;34.90
12413;DHT22;13877;18.896;-99.222;2023-04-24T05:14:17;23.50;35.20
12413;DHT22;13877;18.896;-99.222;2023-04-24T05:16:45;23.50;34.60
12413;DHT22;13877;18.896;-99.222;2023-04-24T05:19:14;23.60;34.70
12413;DHT22;13877;18.896;-99.222;2023-04-24T05:21:42;23.60;34.40
12413;DHT22;13877;18.896;-99.222;2023-04-24T05:24:10;23.60;34.80
12413;DHT22;13877;18.896;-99.222;2023-04-24T05:27:02;23.50;34.50
12413;DHT22;13877;18.896;-99.222;2023-04-24T05:29:34;23.60;34.40
12413;DHT22;13877;18.896;-99.222;2023-04-24T05:32:03;23.60;34.30
12413;DHT22;13877;18.896;-99.222;2023-04-24T05:34:31;23.60;34.30
12413;DHT22;13877;18.896;-99.222;2023-04-24T05:36:58;23.60;34.40
12413;DHT22;13877;18.896;-99.222;2023-04-24T05:39:26;23.50;34.70
12413;DHT22;13877;18.896;-99.222;2023-04-24T05:41:54;23.50;34.70
12413;DHT22;13877;18.896;-99.222;2023-04-24T05:44:24;23.50;35.20
12413;DHT22;13877;18.896;-99.222;2023-04-24T05:46:52;23.50;35.20
12413;DHT22;13877;18.896;-99.222;2023-04-24T05:49:19;23.40;36.40
12413;DHT22;13877;18.896;-99.222;2023-04-24T05:51:46;23.00;36.20
12413;DHT22;13877;18.896;-99.222;2023-04-24T05:54:14;22.90;36.40
12413;DHT22;13877;18.896;-99.222;2023-04-24T05:56:41;22.80;37.80
12413;DHT22;13877;18.896;-99.222;2023-04-24T05:59:08;22.90;36.50
12413;DHT22;13877;18.896;-99.222;2023-04-24T06:01:36;22.90;36.00
12413;DHT22;13877;18.896;-99.222;2023-04-24T06:04:13;23.00;35.70
12413;DHT22;13877;18.896;-99.222;2023-04-24T06:06:40;23.10;35.10
12413;DHT22;13877;18.896;-99.222;2023-04-24T06:09:09;23.20;35.30
12413;DHT22;13877;18.896;-99.222;2023-04-24T06:11:36;23.10;35.30
12413;DHT22;13877;18.896;-99.222;2023-04-24T06:14:03;23.10;35.10
12413;DHT22;13877;18.896;-99.222;2023-04-24T06:16:41;23.00;35.00
12413;DHT22;13877;18.896;-99.222;2023-04-24T06:19:26;23.10;34.90
12413;DHT22;13877;18.896;-99.222;2023-04-24T06:21:54;23.10;34.70
12413;DHT22;13877;18.896;-99.222;2023-04-24T06:24:21;23.20;34.50
12413;DHT22;13877;18.896;-99.222;2023-04-24T06:26:48;23.10;34.20
12413;DHT22;13877;18.896;-99.222;2023-04-24T06:29:15;23.10;34.20
12413;DHT22;13877;18.896;-99.222;2023-04-24T06:31:42;23.20;34.30
12413;DHT22;13877;18.896;-99.222;2023-04-24T06:34:10;23.10;34.60
12413;DHT22;13877;18.896;-99.222;2023-04-24T06:36:37;23.10;34.40
12413;DHT22;13877;18.896;-99.222;2023-04-24T06:39:04;23.00;34.60
12413;DHT22;13877;18.896;-99.222;2023-04-24T06:41:31;22.90;34.80
12413;DHT22;13877;18.896;-99.222;2023-04-24T06:43:58;22.70;35.20
12413;DHT22;13877;18.896;-99.222;2023-04-24T06:46:25;22.70;35.20
12413;DHT22;13877;18.896;-99.222;2023-04-24T06:48:54;22.70;35.20
12413;DHT22;13877;18.896;-99.222;2023-04-24T06:51:25;22.60;34.90
12413;DHT22;13877;18.896;-99.222;2023-04-24T06:53:52;22.60;35.10
12413;DHT22;13877;18.896;-99.222;2023-04-24T06:56:20;22.50;35.20
12413;DHT22;13877;18.896;-99.222;2023-04-24T06:58:47;22.70;35.50
12413;DHT22;13877;18.896;-99.222;2023-04-24T07:01:14;22.70;35.70
12413;DHT22;13877;18.896;-99.222;2023-04-24T07:03:41;22.50;36.00
12413;DHT22;13877;18.896;-99.222;2023-04-24T07:06:09;22.40;36.20
12413;DHT22;13877;18.896;-99.222;2023-04-24T07:08:37;22.10;36.10
12413;DHT22;13877;18.896;-99.222;2023-04-24T07:11:05;22.00;37.00
12413;DHT22;13877;18.896;-99.222;2023-04-24T07:13:32;22.00;37.50
12413;DHT22;13877;18.896;-99.222;2023-04-24T07:15:58;22.00;38.60
12413;DHT22;13877;18.896;-99.222;2023-04-24T07:18:25;21.90;39.30
12413;DHT22;13877;18.896;-99.222;2023-04-24T07:20:52;21.70;39.30
12413;DHT22;13877;18.896;-99.222;2023-04-24T07:23:20;21.50;39.70
12413;DHT22;13877;18.896;-99.222;2023-04-24T07:25:47;21.40;40.30
12413;DHT22;13877;18.896;-99.222;2023-04-24T07:28:14;21.50;40.80
12413;DHT22;13877;18.896;-99.222;2023-04-24T07:30:41;21.30;40.80
12413;DHT22;13877;18.896;-99.222;2023-04-24T07:33:08;21.20;40.70
12413;DHT22;13877;18.896;-99.222;2023-04-24T07:35:35;21.10;40.60
12413;DHT22;13877;18.896;-99.222;2023-04-24T07:38:01;21.20;40.00
12413;DHT22;13877;18.896;-99.222;2023-04-24T07:40:28;21.30;39.30
12413;DHT22;13877;18.896;-99.222;2023-04-24T07:42:55;21.50;39.00
12413;DHT22;13877;18.896;-99.222;2023-04-24T07:45:22;21.60;39.50
12413;DHT22;13877;18.896;-99.222;2023-04-24T07:47:50;21.70;38.70
12413;DHT22;13877;18.896;-99.222;2023-04-24T07:50:17;21.70;38.10
12413;DHT22;13877;18.896;-99.222;2023-04-24T07:52:44;21.70;37.90
12413;DHT22;13877;18.896;-99.222;2023-04-24T07:55:11;21.90;38.60
12413;DHT22;13877;18.896;-99.222;2023-04-24T07:57:38;21.90;38.40
12413;DHT22;13877;18.896;-99.222;2023-04-24T08:00:08;21.70;38.80
12413;DHT22;13877;18.896;-99.222;2023-04-24T08:02:39;21.70;38.90
12413;DHT22;13877;18.896;-99.222;2023-04-24T08:05:06;21.60;38.90
12413;DHT22;13877;18.896;-99.222;2023-04-24T08:07:34;21.50;38.80
12413;DHT22;13877;18.896;-99.222;2023-04-24T08:10:02;21.60;38.40
12413;DHT22;13877;18.896;-99.222;2023-04-24T08:12:29;21.70;38.90
12413;DHT22;13877;18.896;-99.222;2023-04-24T08:14:56;21.50;39.30
12413;DHT22;13877;18.896;-99.222;2023-04-24T08:17:24;21.40;39.70
12413;DHT22;13877;18.896;-99.222;2023-04-24T08:19:51;21.30;39.90
12413;DHT22;13877;18.896;-99.222;2023-04-24T08:22:20;21.20;39.90
12413;DHT22;13877;18.896;-99.222;2023-04-24T08:24:47;21.00;40.50
12413;DHT22;13877;18.896;-99.222;2023-04-24T08:27:14;20.80;41.50
12413;DHT22;13877;18.896;-99.222;2023-04-24T08:29:41;21.00;41.80
12413;DHT22;13877;18.896;-99.222;2023-04-24T08:32:08;21.30;41.70
12413;DHT22;13877;18.896;-99.222;2023-04-24T08:34:35;21.20;42.10
12413;DHT22;13877;18.896;-99.222;2023-04-24T08:37:02;21.20;41.30
12413;DHT22;13877;18.896;-99.222;2023-04-24T08:39:29;21.20;42.20
12413;DHT22;13877;18.896;-99.222;2023-04-24T08:41:56;21.20;42.30
12413;DHT22;13877;18.896;-99.222;2023-04-24T08:44:32;21.20;42.50
12413;DHT22;13877;18.896;-99.222;2023-04-24T08:47:00;21.00;42.80
12413;DHT22;13877;18.896;-99.222;2023-04-24T08:49:29;21.00;43.30
12413;DHT22;13877;18.896;-99.222;2023-04-24T08:51:56;21.00;42.50
12413;DHT22;13877;18.896;-99.222;2023-04-24T08:54:24;21.20;42.80
12413;DHT22;13877;18.896;-99.222;2023-04-24T08:56:54;21.00;43.00
12413;DHT22;13877;18.896;-99.222;2023-04-24T08:59:25;21.00;43.00
12413;DHT22;13877;18.896;-99.222;2023-04-24T09:01:52;21.20;42.60
12413;DHT22;13877;18.896;-99.222;2023-04-24T09:04:23;21.10;43.20
12413;DHT22;13877;18.896;-99.222;2023-04-24T09:06:58;20.90;43.90
12413;DHT22;13877;18.896;-99.222;2023-04-24T09:09:26;21.20;43.10
12413;DHT22;13877;18.896;-99.222;2023-04-24T09:11:56;21.50;42.80
12413;DHT22;13877;18.896;-99.222;2023-04-24T09:14:24;21.70;42.70
12413;DHT22;13877;18.896;-99.222;2023-04-24T09:16:51;21.70;42.70
12413;DHT22;13877;18.896;-99.222;2023-04-24T09:19:18;21.80;42.70
12413;DHT22;13877;18.896;-99.222;2023-04-24T09:21:48;21.70;42.90
12413;DHT22;13877;18.896;-99.222;2023-04-24T09:24:16;21.70;43.10
12413;DHT22;13877;18.896;-99.222;2023-04-24T09:26:44;21.80;42.90
12413;DHT22;13877;18.896;-99.222;2023-04-24T09:29:17;21.80;43.10
12413;DHT22;13877;18.896;-99.222;2023-04-24T09:31:45;21.70;42.40
12413;DHT22;13877;18.896;-99.222;2023-04-24T09:34:12;21.70;42.20
12413;DHT22;13877;18.896;-99.222;2023-04-24T09:36:42;21.50;43.20
12413;DHT22;13877;18.896;-99.222;2023-04-24T09:39:10;21.20;43.20
12413;DHT22;13877;18.896;-99.222;2023-04-24T09:41:51;21.30;43.50
12413;DHT22;13877;18.896;-99.222;2023-04-24T09:44:24;21.10;43.80
12413;DHT22;13877;18.896;-99.222;2023-04-24T09:49:26;20.80;44.90
12413;DHT22;13877;18.896;-99.222;2023-04-24T09:52:07;20.70;45.20
12413;DHT22;13877;18.896;-99.222;2023-04-24T09:54:34;20.60;45.40
12413;DHT22;13877;18.896;-99.222;2023-04-24T09:57:03;20.70;44.80
12413;DHT22;13877;18.896;-99.222;2023-04-24T09:59:30;20.80;44.00
12413;DHT22;13877;18.896;-99.222;2023-04-24T10:01:57;20.80;43.60
12413;DHT22;13877;18.896;-99.222;2023-04-24T10:04:27;20.90;43.90
12413;DHT22;13877;18.896;-99.222;2023-04-24T10:06:56;20.80;43.90
12413;DHT22;13877;18.896;-99.222;2023-04-24T10:09:25;20.60;44.00
12413;DHT22;13877;18.896;-99.222;2023-04-24T10:11:54;20.30;44.70
12413;DHT22;13877;18.896;-99.222;2023-04-24T10:14:23;20.30;45.20
12413;DHT22;13877;18.896;-99.222;2023-04-24T10:16:53;20.20;44.90
12413;DHT22;13877;18.896;-99.222;2023-04-24T10:19:20;20.00;45.50
12413;DHT22;13877;18.896;-99.222;2023-04-24T10:21:47;19.90;45.70
12413;DHT22;13877;18.896;-99.222;2023-04-24T10:24:18;19.90;45.90
12413;DHT22;13877;18.896;-99.222;2023-04-24T10:26:47;19.90;46.10
12413;DHT22;13877;18.896;-99.222;2023-04-24T10:29:17;19.90;46.70
12413;DHT22;13877;18.896;-99.222;2023-04-24T10:31:44;19.80;46.90
12413;DHT22;13877;18.896;-99.222;2023-04-24T10:34:16;20.00;46.30
12413;DHT22;13877;18.896;-99.222;2023-04-24T10:36:47;19.80;46.30
12413;DHT22;13877;18.896;-99.222;2023-04-24T10:39:16;20.10;45.10
12413;DHT22;13877;18.896;-99.222;2023-04-24T10:41:43;20.20;45.50
12413;DHT22;13877;18.896;-99.222;2023-04-24T10:44:15;20.00;45.00
12413;DHT22;13877;18.896;-99.222;2023-04-24T10:46:46;19.80;46.00
12413;DHT22;13877;18.896;-99.222;2023-04-24T10:49:16;19.60;46.30
12413;DHT22;13877;18.896;-99.222;2023-04-24T10:51:50;19.40;46.90
12413;DHT22;13877;18.896;-99.222;2023-04-24T11:02:39;20.10;46.70
12413;DHT22;13877;18.896;-99.222;2023-04-24T11:05:10;20.10;46.90
12413;DHT22;13877;18.896;-99.222;2023-04-24T11:10:44;19.90;46.80
12413;DHT22;13877;18.896;-99.222;2023-04-24T11:13:14;19.80;47.30
12413;DHT22;13877;18.896;-99.222;2023-04-24T11:15:42;19.90;47.40
12413;DHT22;13877;18.896;-99.222;2023-04-24T11:18:15;19.70;48.00
12413;DHT22;13877;18.896;-99.222;2023-04-24T11:20:43;19.40;48.50
12413;DHT22;13877;18.896;-99.222;2023-04-24T11:23:12;19.40;48.80
12413;DHT22;13877;18.896;-99.222;2023-04-24T11:25:41;19.50;48.90
12413;DHT22;13877;18.896;-99.222;2023-04-24T11:28:14;19.50;49.50
12413;DHT22;13877;18.896;-99.222;2023-04-24T11:30:43;19.50;48.90
12413;DHT22;13877;18.896;-99.222;2023-04-24T11:33:09;19.60;49.30
12413;DHT22;13877;18.896;-99.222;2023-04-24T11:35:40;19.80;49.10
12413;DHT22;13877;18.896;-99.222;2023-04-24T11:38:07;19.60;49.50
12413;DHT22;13877;18.896;-99.222;2023-04-24T11:40:33;19.60;49.90
12413;DHT22;13877;18.896;-99.222;2023-04-24T11:43:00;19.60;49.70
12413;DHT22;13877;18.896;-99.222;2023-04-24T11:45:29;19.60;49.40
12413;DHT22;13877;18.896;-99.222;2023-04-24T11:47:57;19.60;49.40
12413;DHT22;13877;18.896;-99.222;2023-04-24T11:50:26;19.80;49.50
12413;DHT22;13877;18.896;-99.222;2023-04-24T11:52:54;19.80;48.60
12413;DHT22;13877;18.896;-99.222;2023-04-24T11:57:51;19.70;48.90
12413;DHT22;13877;18.896;-99.222;2023-04-24T12:00:20;19.70;48.30
12413;DHT22;13877;18.896;-99.222;2023-04-24T12:02:47;19.90;46.70
12413;DHT22;13877;18.896;-99.222;2023-04-24T12:05:25;20.00;46.20
12413;DHT22;13877;18.896;-99.222;2023-04-24T12:07:53;20.10;46.20
12413;DHT22;13877;18.896;-99.222;2023-04-24T12:10:23;20.20;46.90
12413;DHT22;13877;18.896;-99.222;2023-04-24T12:12:51;19.90;46.90
12413;DHT22;13877;18.896;-99.222;2023-04-24T12:15:20;19.70;47.60
12413;DHT22;13877;18.896;-99.222;2023-04-24T12:17:47;19.90;45.40
12413;DHT22;13877;18.896;-99.222;2023-04-24T12:20:15;19.90;44.00
12413;DHT22;13877;18.896;-99.222;2023-04-24T12:22:47;20.10;43.40
12413;DHT22;13877;18.896;-99.222;2023-04-24T12:25:18;20.20;43.20
12413;DHT22;13877;18.896;-99.222;2023-04-24T12:27:46;20.20;43.20
12413;DHT22;13877;18.896;-99.222;2023-04-24T12:30:15;20.10;43.40
12413;DHT22;13877;18.896;-99.222;2023-04-24T12:32:47;20.00;43.30
12413;DHT22;13877;18.896;-99.222;2023-04-24T12:35:25;20.00;43.30
12413;DHT22;13877;18.896;-99.222;2023-04-24T12:37:52;20.10;43.20
12413;DHT22;13877;18.896;-99.222;2023-04-24T12:40:21;20.30;42.80
12413;DHT22;13877;18.896;-99.222;2023-04-24T12:42:49;20.40;43.00
12413;DHT22;13877;18.896;-99.222;2023-04-24T12:45:18;20.50;42.90
12413;DHT22;13877;18.896;-99.222;2023-04-24T12:47:46;20.60;42.90
12413;DHT22;13877;18.896;-99.222;2023-04-24T12:50:15;20.70;42.10
12413;DHT22;13877;18.896;-99.222;2023-04-24T12:52:43;20.90;41.60
12413;DHT22;13877;18.896;-99.222;2023-04-24T12:55:10;21.00;41.30
12413;DHT22;13877;18.896;-99.222;2023-04-24T12:57:39;21.10;41.30
12413;DHT22;13877;18.896;-99.222;2023-04-24T13:00:07;21.30;40.60
12413;DHT22;13877;18.896;-99.222;2023-04-24T13:02:35;21.50;40.10
12413;DHT22;13877;18.896;-99.222;2023-04-24T13:05:02;21.60;40.10
12413;DHT22;13877;18.896;-99.222;2023-04-24T13:07:30;21.80;40.00
12413;DHT22;13877;18.896;-99.222;2023-04-24T13:09:57;22.00;40.50
12413;DHT22;13877;18.896;-99.222;2023-04-24T13:12:24;22.10;40.60
12413;DHT22;13877;18.896;-99.222;2023-04-24T13:14:52;22.20;40.90
12413;DHT22;13877;18.896;-99.222;2023-04-24T13:17:20;22.30;40.90
12413;DHT22;13877;18.896;-99.222;2023-04-24T13:19:49;22.40;41.40
12413;DHT22;13877;18.896;-99.222;2023-04-24T13:22:18;22.40;42.00
12413;DHT22;13877;18.896;-99.222;2023-04-24T13:24:46;22.30;41.30
12413;DHT22;13877;18.896;-99.222;2023-04-24T13:27:16;22.20;41.90
12413;DHT22;13877;18.896;-99.222;2023-04-24T13:29:43;22.20;42.20
12413;DHT22;13877;18.896;-99.222;2023-04-24T13:32:10;22.20;42.80
12413;DHT22;13877;18.896;-99.222;2023-04-24T13:34:37;22.30;42.90
12413;DHT22;13877;18.896;-99.222;2023-04-24T13:37:05;22.50;43.40
12413;DHT22;13877;18.896;-99.222;2023-04-24T13:39:32;22.70;43.50
12413;DHT22;13877;18.896;-99.222;2023-04-24T13:41:59;22.80;43.90
12413;DHT22;13877;18.896;-99.222;2023-04-24T13:44:27;22.90;44.10
12413;DHT22;13877;18.896;-99.222;2023-04-24T13:46:57;23.00;43.90
12413;DHT22;13877;18.896;-99.222;2023-04-24T13:49:25;23.40;43.00
12413;DHT22;13877;18.896;-99.222;2023-04-24T13:51:52;23.80;42.30
12413;DHT22;13877;18.896;-99.222;2023-04-24T13:54:20;24.10;41.70
12413;DHT22;13877;18.896;-99.222;2023-04-24T13:56:47;24.40;42.30
12413;DHT22;13877;18.896;-99.222;2023-04-24T13:59:14;24.80;42.60
12413;DHT22;13877;18.896;-99.222;2023-04-24T14:01:40;24.90;42.70
12413;DHT22;13877;18.896;-99.222;2023-04-24T14:04:08;25.00;43.50
12413;DHT22;13877;18.896;-99.222;2023-04-24T14:06:35;25.20;43.30
12413;DHT22;13877;18.896;-99.222;2023-04-24T14:09:02;25.20;43.60
12413;DHT22;13877;18.896;-99.222;2023-04-24T14:11:29;25.40;43.50
12413;DHT22;13877;18.896;-99.222;2023-04-24T14:13:56;25.70;42.90
12413;DHT22;13877;18.896;-99.222;2023-04-24T14:16:23;25.90;42.90
12413;DHT22;13877;18.896;-99.222;2023-04-24T14:18:50;26.10;42.10
12413;DHT22;13877;18.896;-99.222;2023-04-24T14:21:17;25.90;41.90
12413;DHT22;13877;18.896;-99.222;2023-04-24T14:23:44;25.60;42.30
12413;DHT22;13877;18.896;-99.222;2023-04-24T14:26:11;25.70;42.70
12413;DHT22;13877;18.896;-99.222;2023-04-24T14:28:38;25.80;41.70
12413;DHT22;13877;18.896;-99.222;2023-04-24T14:31:05;26.00;42.80
12413;DHT22;13877;18.896;-99.222;2023-04-24T14:33:32;25.90;42.70
12413;DHT22;13877;18.896;-99.222;2023-04-24T14:35:59;26.20;43.40
12413;DHT22;13877;18.896;-99.222;2023-04-24T14:38:26;26.00;43.70
12413;DHT22;13877;18.896;-99.222;2023-04-24T14:40:53;26.40;44.30
12413;DHT22;13877;18.896;-99.222;2023-04-24T14:43:20;26.40;44.30
12413;DHT22;13877;18.896;-99.222;2023-04-24T14:45:47;26.00;45.70
12413;DHT22;13877;18.896;-99.222;2023-04-24T14:48:14;26.10;45.60
12413;DHT22;13877;18.896;-99.222;2023-04-24T14:50:42;26.10;45.70
12413;DHT22;13877;18.896;-99.222;2023-04-24T14:53:10;26.00;45.20
12413;DHT22;13877;18.896;-99.222;2023-04-24T14:55:36;26.10;45.40
12413;DHT22;13877;18.896;-99.222;2023-04-24T14:58:04;26.50;45.60
12413;DHT22;13877;18.896;-99.222;2023-04-24T15:00:31;27.00;45.00
12413;DHT22;13877;18.896;-99.222;2023-04-24T15:02:57;27.40;44.50
12413;DHT22;13877;18.896;-99.222;2023-04-24T15:05:24;27.60;43.80
12413;DHT22;13877;18.896;-99.222;2023-04-24T15:07:54;27.70;43.50
12413;DHT22;13877;18.896;-99.222;2023-04-24T15:10:21;27.70;43.60
12413;DHT22;13877;18.896;-99.222;2023-04-24T15:12:50;27.60;43.50
12413;DHT22;13877;18.896;-99.222;2023-04-24T15:15:17;27.10;44.60
12413;DHT22;13877;18.896;-99.222;2023-04-24T15:17:44;27.40;44.40
12413;DHT22;13877;18.896;-99.222;2023-04-24T15:20:11;27.60;44.60
12413;DHT22;13877;18.896;-99.222;2023-04-24T15:22:38;28.00;43.80
12413;DHT22;13877;18.896;-99.222;2023-04-24T15:25:05;27.80;44.30
12413;DHT22;13877;18.896;-99.222;2023-04-24T15:27:43;28.10;44.00